Terminal Aerodrome Forecast
Issued by NWS

Home | Current Version | Previous Version | Text Only | Print | Product List | Glossary On
Versions: 1 2 3 4 5 6 7 8 9 10 11 12 13
922
FTUS46 KSTO 131735
TAFSAC
TAF
KSAC 131735Z 1318/1418 32007KT P6SM FEW250
     FM140800 VRB02KT 3SM BR SCT250
      TEMPO 1412/1416 1/4SM FG VV003=

USA.gov is the U.S. government's official web portal to all federal, state and local government web resources and services.